createdAt,value
2018-11-23T00:01:17.721Z,77.67
2018-11-23T00:03:21.389Z,75.37
2018-11-23T00:05:25.285Z,77.12
2018-11-23T00:07:28.732Z,75.20
2018-11-23T00:09:31.921Z,78.55
2018-11-23T00:11:35.130Z,69.53
2018-11-23T00:13:38.783Z,74.37
2018-11-23T00:15:42.321Z,81.08
2018-11-23T00:17:46.136Z,75.52
2018-11-23T00:19:49.348Z,77.27
2018-11-23T00:21:52.833Z,78.83
2018-11-23T00:23:56.334Z,77.08
2018-11-23T00:26:00.338Z,76.40
2018-11-23T00:28:03.891Z,77.63
2018-11-23T00:30:09.476Z,78.60
2018-11-23T00:32:13.157Z,77.67
2018-11-23T00:34:16.546Z,69.67
2018-11-23T00:36:19.737Z,78.43
2018-11-23T00:38:23.338Z,79.00
2018-11-23T00:40:32.432Z,81.45
2018-11-23T00:42:35.979Z,73.33
2018-11-23T00:44:39.493Z,78.95
2018-11-23T00:46:43.049Z,78.75
2018-11-23T00:48:46.540Z,75.65
2018-11-23T00:50:50.080Z,82.22
2018-11-23T00:52:54.685Z,81.20
2018-11-23T00:54:58.257Z,77.72
2018-11-23T00:57:01.913Z,75.45
2018-11-23T00:59:05.353Z,82.88
2018-11-23T01:01:08.823Z,72.85
2018-11-23T01:03:12.544Z,75.17
2018-11-23T01:05:17.416Z,86.60
2018-11-23T01:07:21.234Z,77.95
2018-11-23T01:09:24.449Z,75.57
2018-11-23T01:11:28.253Z,75.17
2018-11-23T01:13:31.717Z,71.55
2018-11-23T01:15:35.563Z,74.22
2018-11-23T01:17:39.395Z,74.50
2018-11-23T01:19:42.850Z,76.00
2018-11-23T01:21:46.404Z,69.30
2018-11-23T01:23:49.885Z,76.70
2018-11-23T01:25:53.129Z,75.50
2018-11-23T01:27:57.179Z,80.12
2018-11-23T01:30:00.641Z,77.47
2018-11-23T01:32:04.473Z,79.53
2018-11-23T01:34:08.287Z,76.75
2018-11-23T01:36:11.744Z,74.60
2018-11-23T01:38:15.203Z,69.97
2018-11-23T01:40:22.904Z,71.82
2018-11-23T01:42:26.199Z,69.13
2018-11-23T01:44:29.670Z,75.67
2018-11-23T01:46:33.189Z,82.00
2018-11-23T01:48:36.669Z,75.83
2018-11-23T01:50:40.181Z,72.25
2018-11-23T01:52:45.041Z,77.40
2018-11-23T01:54:48.520Z,70.83
2018-11-23T01:56:51.997Z,75.08
2018-11-23T01:58:55.506Z,72.10
2018-11-23T02:00:58.928Z,79.20
2018-11-23T02:03:02.709Z,76.35
2018-11-23T02:05:06.949Z,79.70
2018-11-23T02:07:10.422Z,78.70
2018-11-23T02:09:13.903Z,75.17
2018-11-23T02:11:17.769Z,75.17
2018-11-23T02:13:21.218Z,76.12
2018-11-23T02:15:24.736Z,79.95
2018-11-23T02:17:28.181Z,76.70
2018-11-23T02:19:31.570Z,74.60
2018-11-23T02:21:35.043Z,69.97
2018-11-23T02:23:38.485Z,72.87
2018-11-23T02:25:42.147Z,80.60
2018-11-23T02:27:45.937Z,75.25
2018-11-23T02:29:49.830Z,83.12
2018-11-23T02:31:53.297Z,73.75
2018-11-23T02:33:56.749Z,78.72
2018-11-23T02:36:00.566Z,78.85
2018-11-23T02:38:04.033Z,75.30
2018-11-23T02:40:08.381Z,75.35
2018-11-23T02:42:11.849Z,76.77
2018-11-23T02:44:15.045Z,77.50
2018-11-23T02:46:18.349Z,75.90
2018-11-23T02:48:21.826Z,78.25
2018-11-23T02:50:25.635Z,77.92
2018-11-23T02:52:29.140Z,76.10
2018-11-23T02:54:32.322Z,74.85
2018-11-23T02:56:45.141Z,82.33
2018-11-23T02:58:48.597Z,81.17
2018-11-23T03:00:52.331Z,71.92
2018-11-23T03:02:55.517Z,81.32
2018-11-23T03:04:58.689Z,83.40
2018-11-23T03:07:02.272Z,76.90
2018-11-23T03:09:08.021Z,81.47
2018-11-23T03:11:11.557Z,73.95
2018-11-23T03:13:14.773Z,78.35
2018-11-23T03:15:19.510Z,82.33
2018-11-23T03:17:24.190Z,78.07
2018-11-23T03:19:27.858Z,79.67
2018-11-23T03:21:31.060Z,71.40
2018-11-23T03:23:34.525Z,78.25
2018-11-23T03:25:38.353Z,78.78
2018-11-23T03:27:42.228Z,77.60
2018-11-23T03:29:45.739Z,80.80
2018-11-23T03:31:49.480Z,74.55
2018-11-23T03:33:53.203Z,75.15
2018-11-23T03:35:56.874Z,71.17
2018-11-23T03:38:00.365Z,80.03
2018-11-23T03:40:03.614Z,77.63
2018-11-23T03:42:07.555Z,71.62
2018-11-23T03:44:11.213Z,81.32
2018-11-23T03:46:14.732Z,74.77
2018-11-23T03:48:18.361Z,77.37
2018-11-23T03:50:22.085Z,72.53
2018-11-23T03:52:25.587Z,77.87
2018-11-23T03:54:30.121Z,73.05
2018-11-23T03:56:34.014Z,78.50
2018-11-23T03:58:37.507Z,80.32
2018-11-23T04:00:40.982Z,76.47
2018-11-23T04:02:45.051Z,76.15
2018-11-23T04:04:48.504Z,77.55
2018-11-23T04:06:52.326Z,75.37
2018-11-23T04:08:56.157Z,77.12
2018-11-23T04:10:59.721Z,77.70
2018-11-23T04:13:03.177Z,80.30
2018-11-23T04:15:07.103Z,76.03
2018-11-23T04:17:10.869Z,73.20
2018-11-23T04:19:14.414Z,82.25
2018-11-23T04:21:17.913Z,74.42
2018-11-23T04:23:21.402Z,71.92
2018-11-23T04:25:24.863Z,74.20
2018-11-23T04:27:28.720Z,79.03
2018-11-23T04:29:32.177Z,73.00
2018-11-23T04:31:35.677Z,76.75
2018-11-23T04:33:39.185Z,75.87
2018-11-23T04:35:42.977Z,76.77
2018-11-23T04:37:47.175Z,73.95
2018-11-23T04:39:50.873Z,76.75
2018-11-23T04:41:54.630Z,72.95
2018-11-23T04:43:57.822Z,78.37
2018-11-23T04:46:01.077Z,76.37
2018-11-23T04:48:05.408Z,76.85
2018-11-23T04:50:10.914Z,71.12
2018-11-23T04:52:14.122Z,73.63
2018-11-23T04:54:17.632Z,77.15
2018-11-23T04:56:21.080Z,79.07
2018-11-23T04:58:24.650Z,80.20
2018-11-23T05:00:28.877Z,74.80
2018-11-23T05:02:32.413Z,74.97
2018-11-23T05:04:35.901Z,74.97
2018-11-23T05:06:39.405Z,75.70
2018-11-23T05:08:42.885Z,79.80
2018-11-23T05:10:46.381Z,78.67
2018-11-23T05:12:49.989Z,76.17
2018-11-23T05:14:53.474Z,75.30
2018-11-23T05:16:57.492Z,71.23
2018-11-23T05:19:00.673Z,77.07
2018-11-23T05:21:04.168Z,77.95
2018-11-23T05:23:07.873Z,72.20
2018-11-23T05:25:13.055Z,73.97
2018-11-23T05:27:16.528Z,69.20
2018-11-23T05:29:19.997Z,73.72
2018-11-23T05:31:23.808Z,68.83
2018-11-23T05:33:27.089Z,72.78
2018-11-23T05:35:30.600Z,75.97
2018-11-23T05:37:34.070Z,79.45
2018-11-23T05:39:37.261Z,72.70
2018-11-23T05:41:40.917Z,77.45
2018-11-23T05:43:44.109Z,77.30
2018-11-23T05:45:47.330Z,76.30
2018-11-23T05:47:51.024Z,73.02
2018-11-23T05:49:54.200Z,79.00
2018-11-23T05:51:57.398Z,71.35
2018-11-23T05:54:00.605Z,84.10
2018-11-23T05:56:04.168Z,80.95
2018-11-23T05:58:07.904Z,75.75
2018-11-23T06:00:14.246Z,72.70
2018-11-23T06:02:17.761Z,85.10
2018-11-23T06:04:21.238Z,78.20
2018-11-23T06:06:24.636Z,69.92
2018-11-23T06:08:27.935Z,71.80
2018-11-23T06:10:31.428Z,74.27
2018-11-23T06:12:34.909Z,77.40
2018-11-23T06:14:38.402Z,86.32
2018-11-23T06:16:42.262Z,81.30
2018-11-23T06:18:45.820Z,78.55
2018-11-23T06:20:49.502Z,77.08
2018-11-23T06:22:54.002Z,78.92
2018-11-23T06:24:57.218Z,82.43
2018-11-23T06:27:00.854Z,80.20
2018-11-23T06:29:04.768Z,77.70
2018-11-23T06:31:08.606Z,79.45
2018-11-23T06:33:27.827Z,76.35
2018-11-23T06:35:31.285Z,75.40
2018-11-23T06:37:34.515Z,75.50
2018-11-23T06:39:38.301Z,83.00
2018-11-23T06:41:42.092Z,82.90
2018-11-23T06:43:45.940Z,80.42
2018-11-23T06:45:49.476Z,75.45
2018-11-23T06:47:52.668Z,79.53
2018-11-23T06:49:56.366Z,81.45
2018-11-23T06:51:59.588Z,77.45
2018-11-23T06:54:03.773Z,75.03
2018-11-23T06:56:07.716Z,77.97
2018-11-23T06:58:11.609Z,77.80
2018-11-23T07:00:16.178Z,78.85
2018-11-23T07:02:19.666Z,75.12
2018-11-23T07:04:23.154Z,70.95
2018-11-23T07:06:26.665Z,75.65
2018-11-23T07:08:30.453Z,71.62
2018-11-23T07:10:34.214Z,77.30
2018-11-23T07:12:38.504Z,73.72
2018-11-23T07:14:42.149Z,80.45
2018-11-23T07:16:45.934Z,71.70
2018-11-23T07:18:49.465Z,74.72
2018-11-23T07:20:53.860Z,79.77
2018-11-23T07:22:56.613Z,75.72
2018-11-23T07:25:00.171Z,72.20
2018-11-23T07:27:03.644Z,66.67
2018-11-23T07:29:07.501Z,72.58
2018-11-23T07:31:11.255Z,69.35
2018-11-23T07:33:14.769Z,72.47
2018-11-23T07:35:18.305Z,74.22
2018-11-23T07:37:21.949Z,72.95
2018-11-23T07:39:36.754Z,75.22
2018-11-23T07:41:51.473Z,79.97
2018-11-23T07:43:54.801Z,76.53
2018-11-23T07:45:58.384Z,76.30
2018-11-23T07:48:02.020Z,72.70
2018-11-23T07:50:07.562Z,70.52
2018-11-23T07:52:11.040Z,74.97
2018-11-23T07:54:14.307Z,73.75
2018-11-23T07:56:17.922Z,67.67
2018-11-23T07:58:21.421Z,69.97
2018-11-23T08:00:26.549Z,66.28
2018-11-23T08:02:30.357Z,69.90
2018-11-23T08:04:34.473Z,70.05
2018-11-23T08:06:37.934Z,74.83
2018-11-23T08:08:41.429Z,75.92
2018-11-23T08:10:43.882Z,75.47
2018-11-23T08:12:49.273Z,67.30
2018-11-23T08:14:53.077Z,67.47
2018-11-23T08:16:56.979Z,67.78
2018-11-23T08:19:00.702Z,69.17
2018-11-23T08:21:04.251Z,73.30
2018-11-23T08:23:08.605Z,75.75
2018-11-23T08:25:13.964Z,79.85
2018-11-23T08:27:18.053Z,79.40
2018-11-23T08:29:21.865Z,70.55
2018-11-23T08:31:25.533Z,71.65
2018-11-23T08:33:29.106Z,66.85
2018-11-23T08:35:32.399Z,62.85
2018-11-23T08:37:36.518Z,66.20
2018-11-23T08:39:40.395Z,64.10
2018-11-23T08:41:43.916Z,66.90
2018-11-23T08:43:47.737Z,64.27
2018-11-23T08:45:51.229Z,63.52
2018-11-23T08:47:54.941Z,63.83
2018-11-23T08:49:59.025Z,68.05
2018-11-23T08:52:03.615Z,63.63
2018-11-23T08:54:07.111Z,67.00
2018-11-23T08:56:10.667Z,70.72
2018-11-23T08:58:14.426Z,65.83
2018-11-23T09:00:21.954Z,71.22
2018-11-23T09:02:25.217Z,73.00
2018-11-23T09:04:29.637Z,69.67
2018-11-23T09:06:32.320Z,69.40
2018-11-23T09:08:36.111Z,61.80
2018-11-23T09:10:39.322Z,66.95
2018-11-23T09:12:43.845Z,65.85
2018-11-23T09:14:47.692Z,64.45
2018-11-23T09:16:51.247Z,61.83
2018-11-23T09:18:54.793Z,65.75
2018-11-23T09:20:59.041Z,61.90
2018-11-23T09:23:02.542Z,66.97
2018-11-23T09:25:09.069Z,66.47
2018-11-23T09:27:12.646Z,66.82
2018-11-23T09:29:15.830Z,66.80
2018-11-23T09:31:19.278Z,61.53
2018-11-23T09:33:22.762Z,64.10
2018-11-23T09:35:27.938Z,62.03
2018-11-23T09:37:31.114Z,65.30
2018-11-23T09:39:34.605Z,61.10
2018-11-23T09:41:38.086Z,64.25
2018-11-23T09:43:41.874Z,61.27
2018-11-23T09:45:45.346Z,62.73
2018-11-23T09:47:50.532Z,63.85
2018-11-23T09:49:54.334Z,63.52
2018-11-23T09:51:58.034Z,64.42
2018-11-23T09:54:01.859Z,62.03
2018-11-23T09:56:05.371Z,62.17
2018-11-23T09:58:09.006Z,63.23
2018-11-23T10:00:15.098Z,64.53
2018-11-23T10:02:18.609Z,62.25
2018-11-23T10:04:21.851Z,63.10
2018-11-23T10:06:25.490Z,60.78
2018-11-23T10:08:29.118Z,61.83
2018-11-23T10:10:32.604Z,63.70
2018-11-23T10:12:35.804Z,64.15
2018-11-23T10:14:39.512Z,63.42
2018-11-23T10:16:43.010Z,61.90
2018-11-23T10:18:46.505Z,65.42
2018-11-23T10:20:50.509Z,60.55
2018-11-23T10:22:54.445Z,60.63
2018-11-23T10:24:57.961Z,65.30
2018-11-23T10:27:01.520Z,63.08
2018-11-23T10:29:05.438Z,69.27
2018-11-23T10:31:08.951Z,67.37
2018-11-23T10:33:12.618Z,63.30
2018-11-23T10:35:16.190Z,62.35
2018-11-23T10:37:19.555Z,61.30
2018-11-23T10:39:23.330Z,64.27
2018-11-23T10:41:27.138Z,63.23
2018-11-23T10:43:30.620Z,61.42
2018-11-23T10:45:34.908Z,65.30
2018-11-23T10:47:38.242Z,63.80
2018-11-23T10:49:41.829Z,61.92
2018-11-23T10:51:45.002Z,62.53
2018-11-23T10:53:48.600Z,63.80
2018-11-23T10:55:52.409Z,63.75
2018-11-23T10:57:56.213Z,57.67
2018-11-23T10:59:59.440Z,61.30
2018-11-23T11:02:04.645Z,59.95
2018-11-23T11:04:13.773Z,55.55
2018-11-23T11:06:22.866Z,62.40
2018-11-23T11:08:26.398Z,61.40
2018-11-23T11:10:29.892Z,56.90
2018-11-23T11:12:33.422Z,65.45
2018-11-23T11:14:36.845Z,65.28
2018-11-23T11:16:40.843Z,57.75
2018-11-23T11:18:44.533Z,58.80
2018-11-23T11:20:48.034Z,62.38
2018-11-23T11:22:51.523Z,64.90
2018-11-23T11:24:55.022Z,58.42
2018-11-23T11:26:58.560Z,59.90
2018-11-23T11:29:02.533Z,63.15
2018-11-23T11:31:07.082Z,63.20
2018-11-23T11:33:10.543Z,57.00
2018-11-23T11:35:14.193Z,64.35
2018-11-23T11:37:17.401Z,59.05
2018-11-23T11:39:20.983Z,58.30
2018-11-23T11:41:24.462Z,65.08
2018-11-23T11:43:27.817Z,57.55
2018-11-23T11:45:31.669Z,56.58
2018-11-23T11:47:35.217Z,57.40
2018-11-23T11:49:39.040Z,59.13
2018-11-23T11:51:42.517Z,56.18
2018-11-23T11:53:46.002Z,60.67
2018-11-23T11:55:49.502Z,60.30
2018-11-23T11:57:53.409Z,63.65
2018-11-23T11:59:56.881Z,65.08
2018-11-23T12:02:00.580Z,56.23
2018-11-23T12:04:04.101Z,61.65
2018-11-23T12:06:07.913Z,61.68
2018-11-23T12:08:11.377Z,59.53
2018-11-23T12:10:17.085Z,55.28
2018-11-23T12:12:20.655Z,61.65
2018-11-23T12:14:24.307Z,60.23
2018-11-23T12:16:27.777Z,65.08
2018-11-23T12:18:31.465Z,62.98
2018-11-23T12:20:35.268Z,62.20
2018-11-23T12:22:39.097Z,60.12
2018-11-23T12:24:43.459Z,63.17
2018-11-23T12:26:46.907Z,60.15
2018-11-23T12:28:50.209Z,69.75
2018-11-23T12:30:53.404Z,58.90
2018-11-23T12:32:56.874Z,65.20
2018-11-23T12:35:00.333Z,56.02
2018-11-23T12:37:04.301Z,60.78
2018-11-23T12:39:08.315Z,62.73
2018-11-23T12:41:11.565Z,61.30
2018-11-23T12:43:15.205Z,63.52
2018-11-23T12:45:20.069Z,63.13
2018-11-23T12:47:23.705Z,63.63
2018-11-23T12:49:27.233Z,62.73
2018-11-23T12:51:30.736Z,60.17
2018-11-23T12:53:34.231Z,63.78
2018-11-23T12:55:37.751Z,69.72
2018-11-23T12:57:41.774Z,57.60
2018-11-23T12:59:45.557Z,62.33
2018-11-23T13:01:49.042Z,62.20
2018-11-23T13:03:52.873Z,62.10
2018-11-23T13:05:56.709Z,63.63
2018-11-23T13:08:02.893Z,59.93
2018-11-23T13:10:07.333Z,61.50
2018-11-23T13:12:10.801Z,62.60
2018-11-23T13:14:14.013Z,62.00
2018-11-23T13:16:17.509Z,63.02
2018-11-23T13:18:20.985Z,65.70
2018-11-23T13:20:24.648Z,62.73
2018-11-23T13:22:28.100Z,59.65
2018-11-23T13:24:31.899Z,63.60
2018-11-23T13:26:35.361Z,59.60
2018-11-23T13:28:38.750Z,68.20
2018-11-23T13:30:44.505Z,68.07
2018-11-23T13:32:48.081Z,58.13
2018-11-23T13:34:51.893Z,56.68
2018-11-23T13:36:55.378Z,61.28
2018-11-23T13:38:58.841Z,61.85
2018-11-23T13:41:02.309Z,58.02
2018-11-23T13:43:05.951Z,63.10
2018-11-23T13:45:11.349Z,66.90
2018-11-23T13:47:14.915Z,65.30
2018-11-23T13:49:18.102Z,66.20
2018-11-23T13:51:21.289Z,63.73
2018-11-23T13:53:24.817Z,63.68
2018-11-23T13:55:28.272Z,64.17
2018-11-23T13:57:32.081Z,61.28
2018-11-23T13:59:35.607Z,64.35
2018-11-23T14:01:39.069Z,66.90
2018-11-23T14:03:42.721Z,65.57
2018-11-23T14:05:46.265Z,61.53
2018-11-23T14:07:51.300Z,63.70
2018-11-23T14:09:55.131Z,65.95
2018-11-23T14:11:58.989Z,71.42
2018-11-23T14:14:02.503Z,65.35
2018-11-23T14:16:07.245Z,65.03
2018-11-23T14:18:10.725Z,65.78
2018-11-23T14:20:15.373Z,68.52
2018-11-23T14:22:18.868Z,69.80
2018-11-23T14:24:22.751Z,69.37
2018-11-23T14:26:26.237Z,63.73
2018-11-23T14:28:30.097Z,69.70
2018-11-23T14:30:34.484Z,66.72
2018-11-23T14:32:38.219Z,67.50
2018-11-23T14:34:41.857Z,70.97
2018-11-23T14:36:45.654Z,73.15
2018-11-23T14:38:49.187Z,69.90
2018-11-23T14:40:53.476Z,73.45
2018-11-23T14:42:57.409Z,73.00
2018-11-23T14:45:00.926Z,74.70
2018-11-23T14:47:04.145Z,69.33
2018-11-23T14:49:07.668Z,71.28
2018-11-23T14:51:11.449Z,71.90
2018-11-23T14:53:15.229Z,73.12
2018-11-23T14:55:19.186Z,71.20
2018-11-23T14:57:22.943Z,74.85
2018-11-23T14:59:26.757Z,70.95
2018-11-23T15:01:30.224Z,74.32
2018-11-23T15:03:33.421Z,76.33
2018-11-23T15:05:37.197Z,71.28
2018-11-23T15:07:40.641Z,75.83
2018-11-23T15:09:43.901Z,78.43
2018-11-23T15:11:47.601Z,72.62
2018-11-23T15:13:50.893Z,74.35
2018-11-23T15:15:54.081Z,75.00
2018-11-23T15:17:58.425Z,67.30
2018-11-23T15:20:01.915Z,73.42
2018-11-23T15:22:05.431Z,71.60
2018-11-23T15:24:09.595Z,73.42
2018-11-23T15:26:13.222Z,74.07
2018-11-23T15:28:16.901Z,77.10
2018-11-23T15:30:23.517Z,74.00
2018-11-23T15:32:27.319Z,76.75
2018-11-23T15:34:30.528Z,70.42
2018-11-23T15:36:34.054Z,72.33
2018-11-23T15:38:37.768Z,74.32
2018-11-23T15:40:41.901Z,75.05
2018-11-23T15:42:46.221Z,72.50
2018-11-23T15:44:50.008Z,74.70
2018-11-23T15:46:53.572Z,77.60
2018-11-23T15:48:57.082Z,70.87
2018-11-23T15:51:07.831Z,70.55
2018-11-23T15:53:12.805Z,76.60
2018-11-23T15:55:21.941Z,77.82
2018-11-23T15:57:25.493Z,74.57
2018-11-23T15:59:29.000Z,81.80
2018-11-23T16:01:32.555Z,77.42
2018-11-23T16:03:36.077Z,79.82
2018-11-23T16:05:39.947Z,76.92
2018-11-23T16:07:43.811Z,80.03
2018-11-23T16:09:47.453Z,80.12
2018-11-23T16:11:51.313Z,81.92
2018-11-23T16:13:55.084Z,80.17
2018-11-23T16:15:58.585Z,87.60
2018-11-23T16:18:03.041Z,78.55
2018-11-23T16:20:11.244Z,76.35
2018-11-23T16:22:15.070Z,82.82
2018-11-23T16:24:18.264Z,80.97
2018-11-23T16:26:22.085Z,84.20
2018-11-23T16:28:25.517Z,84.67
2018-11-23T16:30:30.677Z,82.90
2018-11-23T16:32:34.321Z,84.92
2018-11-23T16:34:38.421Z,77.72
2018-11-23T16:36:42.107Z,79.45
2018-11-23T16:38:45.617Z,81.87
2018-11-23T16:40:52.425Z,82.57
2018-11-23T16:42:56.306Z,81.17
2018-11-23T16:44:59.785Z,83.62
2018-11-23T16:47:02.991Z,86.70
2018-11-23T16:49:06.448Z,87.30
2018-11-23T16:51:10.082Z,78.87
2018-11-23T16:53:13.730Z,89.10
2018-11-23T16:55:18.453Z,90.40
2018-11-23T16:57:21.935Z,81.37
2018-11-23T16:59:25.488Z,86.35
2018-11-23T17:01:29.303Z,95.40
2018-11-23T17:03:32.983Z,88.70
2018-11-23T17:05:43.837Z,92.47
2018-11-23T17:07:47.863Z,88.67
2018-11-23T17:09:51.506Z,89.95
2018-11-23T17:11:54.685Z,90.72
2018-11-23T17:13:58.153Z,93.50
2018-11-23T17:16:01.655Z,99.15
2018-11-23T17:18:05.274Z,95.17
2018-11-23T17:20:11.296Z,91.47
2018-11-23T17:22:14.826Z,102.02
2018-11-23T17:24:18.755Z,98.30
2018-11-23T17:26:22.417Z,98.95
2018-11-23T17:28:26.029Z,95.90
2018-11-23T17:30:30.775Z,95.85
2018-11-23T17:32:34.526Z,98.52
2018-11-23T17:34:37.717Z,103.00
2018-11-23T17:36:41.212Z,90.85
2018-11-23T17:38:47.693Z,92.62
2018-11-23T17:40:48.578Z,98.62
2018-11-23T17:42:51.873Z,95.67
2018-11-23T17:44:55.097Z,93.57
2018-11-23T17:46:58.560Z,94.32
2018-11-23T17:49:02.010Z,97.12
2018-11-23T17:51:05.809Z,95.90
2018-11-23T17:53:09.169Z,88.80
2018-11-23T17:55:13.013Z,93.00
2018-11-23T17:57:16.481Z,84.97
2018-11-23T17:59:19.978Z,87.12
2018-11-23T18:01:23.783Z,80.22
2018-11-23T18:03:27.438Z,76.40
2018-11-23T18:05:32.061Z,85.22
2018-11-23T18:07:35.513Z,85.00
2018-11-23T18:09:39.662Z,92.80
2018-11-23T18:11:43.492Z,89.55
2018-11-23T18:13:47.338Z,80.03
2018-11-23T18:15:50.975Z,92.40
2018-11-23T18:17:55.924Z,81.08
2018-11-23T18:19:59.130Z,82.72
2018-11-23T18:22:03.231Z,85.80
2018-11-23T18:24:07.025Z,82.27
2018-11-23T18:26:10.592Z,81.80
2018-11-23T18:28:14.057Z,83.78
2018-11-23T18:30:17.549Z,83.97
2018-11-23T18:32:21.263Z,88.10
2018-11-23T18:34:24.795Z,83.17
2018-11-23T18:36:28.407Z,87.63
2018-11-23T18:38:31.909Z,80.47
2018-11-23T18:40:37.376Z,76.73
2018-11-23T18:42:39.265Z,78.37
2018-11-23T18:44:42.736Z,73.17
2018-11-23T18:46:46.561Z,78.97
2018-11-23T18:48:50.725Z,79.45
2018-11-23T18:50:54.005Z,80.50
2018-11-23T18:52:57.790Z,82.78
2018-11-23T18:55:01.274Z,83.97
2018-11-23T18:57:05.310Z,83.80
2018-11-23T18:59:08.540Z,79.15
2018-11-23T19:01:13.015Z,76.37
2018-11-23T19:03:16.839Z,75.83
2018-11-23T19:05:23.970Z,81.67
2018-11-23T19:07:27.647Z,69.82
2018-11-23T19:09:31.127Z,78.28
2018-11-23T19:11:34.594Z,75.03
2018-11-23T19:13:38.043Z,78.22
2018-11-23T19:15:41.832Z,69.10
2018-11-23T19:17:45.608Z,72.05
2018-11-23T19:19:49.423Z,73.70
2018-11-23T19:21:53.233Z,75.40
2018-11-23T19:23:56.409Z,69.42
2018-11-23T19:26:00.157Z,73.80
2018-11-23T19:28:03.980Z,67.05
2018-11-23T19:30:09.717Z,78.05
2018-11-23T19:32:13.213Z,72.07
2018-11-23T19:34:16.681Z,74.27
2018-11-23T19:36:19.877Z,75.72
2018-11-23T19:38:23.109Z,66.90
2018-11-23T19:40:26.662Z,70.62
2018-11-23T19:42:30.116Z,64.10
2018-11-23T19:44:33.645Z,64.27
2018-11-23T19:46:43.924Z,69.58
2018-11-23T19:48:47.136Z,67.47
2018-11-23T19:50:50.333Z,68.47
2018-11-23T19:52:53.869Z,63.30
2018-11-23T19:54:57.316Z,73.02
2018-11-23T19:57:01.002Z,68.90
2018-11-23T19:59:04.826Z,63.08
2018-11-23T20:01:08.298Z,67.65
2018-11-23T20:03:12.190Z,69.35
2018-11-23T20:05:15.751Z,70.85
2018-11-23T20:07:19.188Z,68.15
2018-11-23T20:09:23.009Z,66.15
2018-11-23T20:11:26.514Z,71.15
2018-11-23T20:13:30.334Z,64.32
2018-11-23T20:15:33.817Z,63.58
2018-11-23T20:17:41.533Z,67.82
2018-11-23T20:19:41.264Z,71.15
2018-11-23T20:21:45.142Z,64.32
2018-11-23T20:23:48.331Z,62.53
2018-11-23T20:25:52.134Z,73.52
2018-11-23T20:27:55.889Z,63.87
2018-11-23T20:29:59.513Z,58.55
2018-11-23T20:32:02.993Z,69.42
2018-11-23T20:34:06.618Z,68.80
2018-11-23T20:36:09.793Z,71.90
2018-11-23T20:38:13.307Z,65.22
2018-11-23T20:40:22.418Z,69.27
2018-11-23T20:42:25.881Z,70.20
2018-11-23T20:44:29.075Z,71.33
2018-11-23T20:46:32.599Z,64.97
2018-11-23T20:48:36.093Z,72.80
2018-11-23T20:50:39.269Z,63.57
2018-11-23T20:52:42.754Z,66.45
2018-11-23T20:54:46.517Z,67.87
2018-11-23T20:56:50.182Z,73.55
2018-11-23T20:58:53.491Z,68.65
2018-11-23T21:00:57.307Z,69.37
2018-11-23T21:03:00.518Z,64.92
2018-11-23T21:05:04.436Z,70.30
2018-11-23T21:07:07.929Z,66.53
2018-11-23T21:09:11.445Z,61.95
2018-11-23T21:11:14.919Z,64.80
2018-11-23T21:13:18.684Z,64.53
2018-11-23T21:15:30.821Z,61.18
2018-11-23T21:17:34.686Z,67.70
2018-11-23T21:19:38.402Z,63.73
2018-11-23T21:21:41.885Z,70.40
2018-11-23T21:23:45.385Z,63.28
2018-11-23T21:25:49.210Z,66.20
2018-11-23T21:27:53.180Z,66.93
2018-11-23T21:29:57.129Z,70.70
2018-11-23T21:32:00.893Z,65.15
2018-11-23T21:34:05.239Z,63.63
2018-11-23T21:36:08.716Z,67.78
2018-11-23T21:38:11.936Z,66.23
2018-11-23T21:40:16.462Z,67.03
2018-11-23T21:42:19.928Z,68.97
2018-11-23T21:44:23.311Z,65.67
2018-11-23T21:46:26.781Z,66.15
2018-11-23T21:48:29.961Z,70.87
2018-11-23T21:50:33.196Z,63.55
2018-11-23T21:52:36.678Z,49.98
2018-11-23T21:54:40.143Z,56.00
2018-11-23T21:56:44.153Z,52.67
2018-11-23T21:58:47.340Z,56.68
2018-11-23T22:00:50.548Z,66.87
2018-11-23T22:02:54.884Z,61.60
2018-11-23T22:04:58.352Z,61.42
2018-11-23T22:07:01.546Z,57.45
2018-11-23T22:09:07.417Z,63.90
2018-11-23T22:11:10.908Z,67.37
2018-11-23T22:13:14.445Z,62.23
2018-11-23T22:15:22.345Z,61.20
2018-11-23T22:17:25.945Z,56.70
2018-11-23T22:19:29.397Z,58.58
2018-11-23T22:21:32.985Z,58.33
2018-11-23T22:23:36.210Z,58.53
2018-11-23T22:25:39.869Z,61.37
2018-11-23T22:27:43.276Z,57.03
2018-11-23T22:29:46.798Z,59.65
2018-11-23T22:31:50.612Z,57.70
2018-11-23T22:33:54.433Z,55.43
2018-11-23T22:35:57.909Z,49.73
2018-11-23T22:38:01.710Z,46.63
2018-11-23T22:40:09.568Z,47.23
2018-11-23T22:42:12.761Z,44.17
2018-11-23T22:44:16.273Z,42.25
2018-11-23T22:46:19.729Z,51.95
2018-11-23T22:48:22.933Z,71.27
2018-11-23T22:50:27.065Z,52.70
2018-11-23T22:52:30.545Z,52.50
2018-11-23T22:54:34.019Z,53.63
2018-11-23T22:56:37.572Z,56.93
2018-11-23T22:58:41.401Z,56.02
2018-11-23T23:00:45.440Z,60.50
2018-11-23T23:02:49.607Z,56.35
2018-11-23T23:04:53.314Z,52.08
2018-11-23T23:06:56.968Z,51.68
2018-11-23T23:09:00.438Z,54.13
2018-11-23T23:11:04.011Z,78.77
2018-11-23T23:13:07.825Z,61.15
2018-11-23T23:15:11.836Z,55.05
2018-11-23T23:17:15.286Z,50.98
2018-11-23T23:19:18.748Z,48.92
2018-11-23T23:21:22.732Z,51.30
2018-11-23T23:23:26.309Z,51.23
2018-11-23T23:25:29.773Z,53.58
2018-11-23T23:27:33.580Z,56.28
2018-11-23T23:29:37.085Z,50.48
2018-11-23T23:31:40.376Z,53.52
2018-11-23T23:33:43.844Z,54.60
2018-11-23T23:35:47.533Z,52.55
2018-11-23T23:37:50.997Z,57.78
2018-11-23T23:39:54.437Z,51.25
2018-11-23T23:41:57.853Z,51.45
2018-11-23T23:44:01.348Z,55.25
2018-11-23T23:46:05.199Z,54.88
2018-11-23T23:48:09.031Z,58.00
2018-11-23T23:50:16.667Z,57.38
2018-11-23T23:52:20.246Z,56.37
2018-11-23T23:54:23.752Z,57.10
2018-11-23T23:56:27.259Z,58.08
2018-11-23T23:58:30.738Z,53.80
